sensor_id;sensor_type;location;lat;lon;timestamp;pressure;altitude;pressure_sealevel;temperature;humidity
57572;BME280;44459;43.522;24.470;2022-09-01T00:02:14;99981.84;;;19.57;100.00
57572;BME280;44459;43.522;24.470;2022-09-01T00:04:41;99979.28;;;19.54;100.00
57572;BME280;44459;43.522;24.470;2022-09-01T00:07:07;99968.72;;;19.49;100.00
57572;BME280;44459;43.522;24.470;2022-09-01T00:09:33;99979.31;;;19.52;100.00
57572;BME280;44459;43.522;24.470;2022-09-01T00:12:00;99973.06;;;19.52;100.00
57572;BME280;44459;43.522;24.470;2022-09-01T00:14:29;99972.97;;;19.55;100.00
57572;BME280;44459;43.522;24.470;2022-09-01T00:16:55;99972.97;;;19.55;99.67
57572;BME280;44459;43.522;24.470;2022-09-01T00:19:22;99981.22;;;19.49;99.63
57572;BME280;44459;43.522;24.470;2022-09-01T00:21:48;99978.69;;;19.44;99.42
57572;BME280;44459;43.522;24.470;2022-09-01T00:24:15;99978.78;;;19.41;99.57
57572;BME280;44459;43.522;24.470;2022-09-01T00:26:41;99974.31;;;19.40;99.97
57572;BME280;44459;43.522;24.470;2022-09-01T00:29:07;99981.38;;;19.44;99.81
57572;BME280;44459;43.522;24.470;2022-09-01T00:31:32;99980.47;;;19.44;99.86
57572;BME280;44459;43.522;24.470;2022-09-01T00:33:58;99980.63;;;19.39;99.91
57572;BME280;44459;43.522;24.470;2022-09-01T00:36:24;99989.13;;;19.26;100.00
57572;BME280;44459;43.522;24.470;2022-09-01T00:38:50;99992.84;;;19.20;100.00
57572;BME280;44459;43.522;24.470;2022-09-01T00:41:24;99987.25;;;19.01;100.00
57572;BME280;44459;43.522;24.470;2022-09-01T00:43:55;99997.00;;;19.02;100.00
57572;BME280;44459;43.522;24.470;2022-09-01T00:46:30;99989.81;;;19.04;100.00
57572;BME280;44459;43.522;24.470;2022-09-01T00:49:03;99985.78;;;18.91;100.00
57572;BME280;44459;43.522;24.470;2022-09-01T00:51:30;99986.91;;;18.84;100.00
57572;BME280;44459;43.522;24.470;2022-09-01T00:53:57;99990.28;;;18.89;100.00
57572;BME280;44459;43.522;24.470;2022-09-01T00:56:25;99987.63;;;18.89;100.00
57572;BME280;44459;43.522;24.470;2022-09-01T00:58:51;99998.22;;;18.92;100.00
57572;BME280;44459;43.522;24.470;2022-09-01T01:01:18;99996.44;;;18.93;100.00
57572;BME280;44459;43.522;24.470;2022-09-01T01:03:43;99995.44;;;18.95;100.00
57572;BME280;44459;43.522;24.470;2022-09-01T01:06:12;99997.22;;;18.96;100.00
57572;BME280;44459;43.522;24.470;2022-09-01T01:08:43;99992.78;;;18.95;100.00
57572;BME280;44459;43.522;24.470;2022-09-01T01:11:21;99991.16;;;18.91;100.00
57572;BME280;44459;43.522;24.470;2022-09-01T01:16:26;99997.50;;;18.87;100.00
57572;BME280;44459;43.522;24.470;2022-09-01T01:18:52;99994.84;;;18.87;100.00
57572;BME280;44459;43.522;24.470;2022-09-01T01:21:24;99990.44;;;18.85;100.00
57572;BME280;44459;43.522;24.470;2022-09-01T01:24:24;99987.81;;;18.83;100.00
57572;BME280;44459;43.522;24.470;2022-09-01T01:26:50;99991.47;;;18.81;100.00
57572;BME280;44459;43.522;24.470;2022-09-01T01:29:17;99992.38;;;18.80;100.00
57572;BME280;44459;43.522;24.470;2022-09-01T01:31:43;99986.22;;;18.78;100.00
57572;BME280;44459;43.522;24.470;2022-09-01T01:34:08;99993.38;;;18.77;100.00
57572;BME280;44459;43.522;24.470;2022-09-01T01:36:36;99981.69;;;18.80;100.00
57572;BME280;44459;43.522;24.470;2022-09-01T01:39:12;99991.41;;;18.82;100.00
57572;BME280;44459;43.522;24.470;2022-09-01T01:41:40;99986.16;;;18.79;100.00
57572;BME280;44459;43.522;24.470;2022-09-01T01:44:08;99991.59;;;18.78;100.00
57572;BME280;44459;43.522;24.470;2022-09-01T01:46:35;99986.38;;;18.73;100.00
57572;BME280;44459;43.522;24.470;2022-09-01T01:49:01;99981.00;;;18.73;100.00
57572;BME280;44459;43.522;24.470;2022-09-01T01:51:27;99983.78;;;18.70;100.00
57572;BME280;44459;43.522;24.470;2022-09-01T01:53:55;99983.69;;;18.73;100.00
57572;BME280;44459;43.522;24.470;2022-09-01T01:56:22;99983.69;;;18.73;100.00
57572;BME280;44459;43.522;24.470;2022-09-01T01:58:53;99991.72;;;18.73;100.00
57572;BME280;44459;43.522;24.470;2022-09-01T02:01:25;99980.16;;;18.71;100.00
57572;BME280;44459;43.522;24.470;2022-09-01T02:03:56;99983.63;;;18.75;100.00
57572;BME280;44459;43.522;24.470;2022-09-01T02:06:24;99981.00;;;18.73;100.00
57572;BME280;44459;43.522;24.470;2022-09-01T02:08:54;99968.56;;;18.72;100.00
57572;BME280;44459;43.522;24.470;2022-09-01T02:11:23;99975.75;;;18.70;100.00
57572;BME280;44459;43.522;24.470;2022-09-01T02:13:51;99973.97;;;18.71;100.00
57572;BME280;44459;43.522;24.470;2022-09-01T02:16:20;99968.69;;;18.68;100.00
57572;BME280;44459;43.522;24.470;2022-09-01T02:18:47;99963.31;;;18.69;100.00
57572;BME280;44459;43.522;24.470;2022-09-01T02:21:14;99959.81;;;18.67;100.00
57572;BME280;44459;43.522;24.470;2022-09-01T02:23:44;99964.13;;;18.71;100.00
57572;BME280;44459;43.522;24.470;2022-09-01T02:26:10;99957.97;;;18.69;100.00
57572;BME280;44459;43.522;24.470;2022-09-01T02:28:38;99964.19;;;18.70;100.00
57572;BME280;44459;43.522;24.470;2022-09-01T02:31:07;99969.63;;;18.67;100.00
57572;BME280;44459;43.522;24.470;2022-09-01T02:33:34;99973.22;;;18.66;100.00
57572;BME280;44459;43.522;24.470;2022-09-01T02:36:07;99969.75;;;18.62;100.00
57572;BME280;44459;43.522;24.470;2022-09-01T02:38:33;99971.63;;;18.60;100.00
57572;BME280;44459;43.522;24.470;2022-09-01T02:41:01;99970.69;;;18.61;100.00
57572;BME280;44459;43.522;24.470;2022-09-01T02:43:27;99971.63;;;18.60;100.00
57572;BME280;44459;43.522;24.470;2022-09-01T02:45:59;99975.13;;;18.62;100.00
57572;BME280;44459;43.522;24.470;2022-09-01T02:48:33;99972.44;;;18.62;100.00
57572;BME280;44459;43.522;24.470;2022-09-01T02:51:04;99981.47;;;18.58;100.00
57572;BME280;44459;43.522;24.470;2022-09-01T02:53:32;99977.13;;;18.54;100.00
57572;BME280;44459;43.522;24.470;2022-09-01T02:55:59;99978.00;;;18.56;100.00
57572;BME280;44459;43.522;24.470;2022-09-01T02:58:28;99978.00;;;18.56;100.00
57572;BME280;44459;43.522;24.470;2022-09-01T03:00:56;99977.22;;;18.51;100.00
57572;BME280;44459;43.522;24.470;2022-09-01T03:03:23;99980.94;;;18.45;100.00
57572;BME280;44459;43.522;24.470;2022-09-01T03:05:52;99976.72;;;18.37;100.00
57572;BME280;44459;43.522;24.470;2022-09-01T03:08:23;99975.84;;;18.36;100.00
57572;BME280;44459;43.522;24.470;2022-09-01T03:10:49;99985.53;;;18.40;100.00
57572;BME280;44459;43.522;24.470;2022-09-01T03:13:22;99986.41;;;18.41;100.00
57572;BME280;44459;43.522;24.470;2022-09-01T03:15:49;99978.41;;;18.41;100.00
57572;BME280;44459;43.522;24.470;2022-09-01T03:18:15;99979.31;;;18.40;100.00
57572;BME280;44459;43.522;24.470;2022-09-01T03:20:43;99976.94;;;18.31;100.00
57572;BME280;44459;43.522;24.470;2022-09-01T03:23:13;99982.31;;;18.29;100.00
57572;BME280;44459;43.522;24.470;2022-09-01T03:25:45;99984.94;;;18.31;100.00
57572;BME280;44459;43.522;24.470;2022-09-01T03:28:12;99984.97;;;18.29;100.00
57572;BME280;44459;43.522;24.470;2022-09-01T03:30:39;99995.53;;;18.34;100.00
57572;BME280;44459;43.522;24.470;2022-09-01T03:33:08;99987.53;;;18.34;100.00
57572;BME280;44459;43.522;24.470;2022-09-01T03:35:35;99985.75;;;18.33;100.00
57572;BME280;44459;43.522;24.470;2022-09-01T03:38:02;99992.88;;;18.34;100.00
57572;BME280;44459;43.522;24.470;2022-09-01T03:40:31;99985.03;;;18.28;100.00
57572;BME280;44459;43.522;24.470;2022-09-01T03:43:02;99989.47;;;18.29;100.00
57572;BME280;44459;43.522;24.470;2022-09-01T03:45:28;100000.19;;;18.27;100.00
57572;BME280;44459;43.522;24.470;2022-09-01T03:47:54;100003.75;;;18.28;100.00
57572;BME280;44459;43.522;24.470;2022-09-01T03:50:22;100000.16;;;18.29;100.00
57572;BME280;44459;43.522;24.470;2022-09-01T03:52:56;100001.00;;;18.29;100.00
57572;BME280;44459;43.522;24.470;2022-09-01T03:55:26;100006.34;;;18.29;100.00
57572;BME280;44459;43.522;24.470;2022-09-01T03:57:54;100016.25;;;18.26;100.00
57572;BME280;44459;43.522;24.470;2022-09-01T04:00:23;100009.97;;;18.28;100.00
57572;BME280;44459;43.522;24.470;2022-09-01T04:02:51;100020.69;;;18.27;100.00
57572;BME280;44459;43.522;24.470;2022-09-01T04:05:20;100010.88;;;18.27;100.00
57572;BME280;44459;43.522;24.470;2022-09-01T04:07:47;100015.31;;;18.28;100.00
57572;BME280;44459;43.522;24.470;2022-09-01T04:10:16;100012.56;;;18.30;100.00
57572;BME280;44459;43.522;24.470;2022-09-01T04:12:42;100018.81;;;18.30;100.00
57572;BME280;44459;43.522;24.470;2022-09-01T04:15:09;100014.31;;;18.32;100.00
57572;BME280;44459;43.522;24.470;2022-09-01T04:17:34;100011.66;;;18.31;100.00
57572;BME280;44459;43.522;24.470;2022-09-01T04:20:20;100016.91;;;18.34;100.00
57572;BME280;44459;43.522;24.470;2022-09-01T04:22:46;100013.34;;;18.35;100.00
57572;BME280;44459;43.522;24.470;2022-09-01T04:25:13;100013.25;;;18.38;100.00
57572;BME280;44459;43.522;24.470;2022-09-01T04:27:40;100011.34;;;18.41;100.00
57572;BME280;44459;43.522;24.470;2022-09-01T04:30:09;100010.38;;;18.44;100.00
57572;BME280;44459;43.522;24.470;2022-09-01T04:32:38;100006.69;;;18.48;100.00
57572;BME280;44459;43.522;24.470;2022-09-01T04:35:05;100008.31;;;18.55;100.00
57572;BME280;44459;43.522;24.470;2022-09-01T04:37:31;100015.31;;;18.59;100.00
57572;BME280;44459;43.522;24.470;2022-09-01T04:39:59;100018.72;;;18.64;100.00
57572;BME280;44459;43.522;24.470;2022-09-01T04:42:27;100021.25;;;18.69;100.00
57572;BME280;44459;43.522;24.470;2022-09-01T04:44:54;100022.88;;;18.74;100.00
57572;BME280;44459;43.522;24.470;2022-09-01T04:47:20;100030.81;;;18.77;100.00
57572;BME280;44459;43.522;24.470;2022-09-01T04:49:55;100025.38;;;18.80;100.00
57572;BME280;44459;43.522;24.470;2022-09-01T04:52:23;100017.16;;;18.86;100.00
57572;BME280;44459;43.522;24.470;2022-09-01T04:54:49;100011.59;;;18.92;100.00
57572;BME280;44459;43.522;24.470;2022-09-01T04:57:14;100014.16;;;18.95;100.00
57572;BME280;44459;43.522;24.470;2022-09-01T04:59:41;100017.59;;;19.00;100.00
57572;BME280;44459;43.522;24.470;2022-09-01T05:02:08;100017.47;;;19.05;100.00
57572;BME280;44459;43.522;24.470;2022-09-01T05:04:34;100011.81;;;19.14;100.00
57572;BME280;44459;43.522;24.470;2022-09-01T05:07:01;100015.81;;;19.27;100.00
57572;BME280;44459;43.522;24.470;2022-09-01T05:09:29;100016.44;;;19.35;100.00
57572;BME280;44459;43.522;24.470;2022-09-01T05:11:56;100014.47;;;19.42;100.00
57572;BME280;44459;43.522;24.470;2022-09-01T05:14:22;100015.88;;;19.53;100.00
57572;BME280;44459;43.522;24.470;2022-09-01T05:16:49;100014.84;;;19.57;100.00
57572;BME280;44459;43.522;24.470;2022-09-01T05:19:16;100016.31;;;19.66;100.00
57572;BME280;44459;43.522;24.470;2022-09-01T05:21:46;100012.28;;;19.79;100.00
57572;BME280;44459;43.522;24.470;2022-09-01T05:24:17;100009.31;;;19.88;100.00
57572;BME280;44459;43.522;24.470;2022-09-01T05:26:44;100012.44;;;19.99;100.00
57572;BME280;44459;43.522;24.470;2022-09-01T05:29:12;100003.25;;;20.06;100.00
57572;BME280;44459;43.522;24.470;2022-09-01T05:31:41;99996.72;;;20.15;99.10
57572;BME280;44459;43.522;24.470;2022-09-01T05:34:08;100007.88;;;20.28;98.34
57572;BME280;44459;43.522;24.470;2022-09-01T05:36:35;100004.88;;;20.37;98.78
57572;BME280;44459;43.522;24.470;2022-09-01T05:39:03;100011.56;;;20.48;97.91
57572;BME280;44459;43.522;24.470;2022-09-01T05:41:29;100008.72;;;20.53;96.56
57572;BME280;44459;43.522;24.470;2022-09-01T05:43:55;100022.34;;;20.70;96.79
57572;BME280;44459;43.522;24.470;2022-09-01T05:46:22;100012.72;;;20.88;96.56
57572;BME280;44459;43.522;24.470;2022-09-01T05:48:50;100016.47;;;21.05;96.39
57572;BME280;44459;43.522;24.470;2022-09-01T05:51:19;100014.94;;;21.22;95.17
57572;BME280;44459;43.522;24.470;2022-09-01T05:53:47;100022.38;;;21.37;94.26
57572;BME280;44459;43.522;24.470;2022-09-01T05:56:17;100018.09;;;21.53;91.81
57572;BME280;44459;43.522;24.470;2022-09-01T05:58:44;100024.59;;;21.69;90.68
57572;BME280;44459;43.522;24.470;2022-09-01T06:01:31;100015.13;;;21.81;90.71
57572;BME280;44459;43.522;24.470;2022-09-01T06:03:59;100020.75;;;21.96;88.94
57572;BME280;44459;43.522;24.470;2022-09-01T06:06:33;100026.03;;;21.98;88.17
57572;BME280;44459;43.522;24.470;2022-09-01T06:09:04;100018.59;;;22.04;89.48
57572;BME280;44459;43.522;24.470;2022-09-01T06:11:30;100015.41;;;22.15;87.94
57572;BME280;44459;43.522;24.470;2022-09-01T06:13:58;100017.84;;;22.21;86.52
57572;BME280;44459;43.522;24.470;2022-09-01T06:16:24;100014.78;;;22.29;86.78
57572;BME280;44459;43.522;24.470;2022-09-01T06:18:50;100013.22;;;22.25;85.90
57572;BME280;44459;43.522;24.470;2022-09-01T06:21:19;100024.63;;;22.30;86.86
57572;BME280;44459;43.522;24.470;2022-09-01T06:23:46;100014.06;;;22.45;85.51
57572;BME280;44459;43.522;24.470;2022-09-01T06:26:30;100015.41;;;22.74;86.58
57572;BME280;44459;43.522;24.470;2022-09-01T06:28:58;100013.53;;;22.76;84.89
57572;BME280;44459;43.522;24.470;2022-09-01T06:31:28;100015.56;;;22.90;83.20
57572;BME280;44459;43.522;24.470;2022-09-01T06:34:00;100023.75;;;23.05;81.75
57572;BME280;44459;43.522;24.470;2022-09-01T06:36:26;100016.19;;;23.14;83.13
57572;BME280;44459;43.522;24.470;2022-09-01T06:38:53;100020.72;;;23.13;83.36
57572;BME280;44459;43.522;24.470;2022-09-01T06:41:20;100017.75;;;23.00;82.12
57572;BME280;44459;43.522;24.470;2022-09-01T06:43:47;100018.09;;;22.93;82.89
57572;BME280;44459;43.522;24.470;2022-09-01T06:46:14;100015.00;;;22.83;83.62
57572;BME280;44459;43.522;24.470;2022-09-01T06:48:40;100012.06;;;22.69;83.81
57572;BME280;44459;43.522;24.470;2022-09-01T06:51:15;100016.69;;;22.66;84.08
57572;BME280;44459;43.522;24.470;2022-09-01T06:53:42;100013.69;;;22.73;82.94
57572;BME280;44459;43.522;24.470;2022-09-01T06:56:08;100017.50;;;22.68;85.00
57572;BME280;44459;43.522;24.470;2022-09-01T06:58:36;100018.38;;;22.68;85.40
57572;BME280;44459;43.522;24.470;2022-09-01T07:01:08;100015.97;;;22.62;85.11
57572;BME280;44459;43.522;24.470;2022-09-01T07:03:48;100021.25;;;22.64;85.11
57572;BME280;44459;43.522;24.470;2022-09-01T07:06:17;100018.56;;;22.64;84.70
57572;BME280;44459;43.522;24.470;2022-09-01T07:08:43;100010.56;;;22.62;83.88
57572;BME280;44459;43.522;24.470;2022-09-01T07:11:20;100010.00;;;22.55;83.37
57572;BME280;44459;43.522;24.470;2022-09-01T07:13:50;100016.00;;;22.61;85.01
57572;BME280;44459;43.522;24.470;2022-09-01T07:16:19;100010.31;;;22.68;83.63
57572;BME280;44459;43.522;24.470;2022-09-01T07:18:50;100013.19;;;22.64;83.42
57572;BME280;44459;43.522;24.470;2022-09-01T07:21:17;100010.31;;;22.68;84.38
57572;BME280;44459;43.522;24.470;2022-09-01T07:23:43;100015.13;;;22.41;85.47
57572;BME280;44459;43.522;24.470;2022-09-01T07:26:09;100015.09;;;22.62;85.50
57572;BME280;44459;43.522;24.470;2022-09-01T07:28:39;100009.69;;;22.62;84.75
57572;BME280;44459;43.522;24.470;2022-09-01T07:31:04;100002.47;;;22.82;83.41
57572;BME280;44459;43.522;24.470;2022-09-01T07:33:30;100001.50;;;23.02;84.10
57572;BME280;44459;43.522;24.470;2022-09-01T07:35:56;100003.97;;;23.06;83.03
57572;BME280;44459;43.522;24.470;2022-09-01T07:38:23;100000.63;;;23.37;82.80
57572;BME280;44459;43.522;24.470;2022-09-01T07:40:49;100000.88;;;23.69;80.62
57572;BME280;44459;43.522;24.470;2022-09-01T07:43:25;100004.19;;;24.08;78.20
57572;BME280;44459;43.522;24.470;2022-09-01T07:45:56;100003.56;;;24.20;77.25
57572;BME280;44459;43.522;24.470;2022-09-01T07:48:25;100006.06;;;24.40;77.30
57572;BME280;44459;43.522;24.470;2022-09-01T07:50:53;100001.72;;;24.38;79.37
57572;BME280;44459;43.522;24.470;2022-09-01T07:53:27;100006.97;;;24.57;75.53
57572;BME280;44459;43.522;24.470;2022-09-01T07:56:08;100000.91;;;24.69;76.99
57572;BME280;44459;43.522;24.470;2022-09-01T07:58:34;99997.66;;;24.95;74.87
57572;BME280;44459;43.522;24.470;2022-09-01T08:01:00;100000.44;;;25.09;72.77
57572;BME280;44459;43.522;24.470;2022-09-01T08:03:28;100003.75;;;25.30;72.72
57572;BME280;44459;43.522;24.470;2022-09-01T08:05:54;100007.31;;;25.30;72.97
57572;BME280;44459;43.522;24.470;2022-09-01T08:08:25;100003.03;;;25.42;71.21
57572;BME280;44459;43.522;24.470;2022-09-01T08:10:51;99999.47;;;25.57;72.30
57572;BME280;44459;43.522;24.470;2022-09-01T08:13:17;99987.94;;;25.83;71.38
57572;BME280;44459;43.522;24.470;2022-09-01T08:15:43;99981.63;;;25.98;66.75
57572;BME280;44459;43.522;24.470;2022-09-01T08:18:09;99980.25;;;25.91;67.98
57572;BME280;44459;43.522;24.470;2022-09-01T08:20:38;99985.94;;;26.01;68.38
57572;BME280;44459;43.522;24.470;2022-09-01T08:23:11;99980.00;;;26.10;68.70
57572;BME280;44459;43.522;24.470;2022-09-01T08:25:38;99981.69;;;26.27;66.18
57572;BME280;44459;43.522;24.470;2022-09-01T08:28:04;99977.31;;;26.38;66.52
57572;BME280;44459;43.522;24.470;2022-09-01T08:30:31;99973.47;;;26.42;65.73
57572;BME280;44459;43.522;24.470;2022-09-01T08:32:57;99981.19;;;26.63;70.50
57572;BME280;44459;43.522;24.470;2022-09-01T08:35:22;99981.50;;;26.58;65.48
57572;BME280;44459;43.522;24.470;2022-09-01T08:37:48;99979.53;;;26.74;66.83
57572;BME280;44459;43.522;24.470;2022-09-01T08:40:16;99977.03;;;26.85;67.73
57572;BME280;44459;43.522;24.470;2022-09-01T08:45:24;99963.03;;;26.50;64.83
57572;BME280;44459;43.522;24.470;2022-09-01T08:47:58;99960.13;;;26.53;66.47
57572;BME280;44459;43.522;24.470;2022-09-01T08:50:26;99970.53;;;26.74;66.49
57572;BME280;44459;43.522;24.470;2022-09-01T08:53:23;99967.31;;;27.10;65.33
57572;BME280;44459;43.522;24.470;2022-09-01T08:55:54;99969.56;;;27.30;60.90
57572;BME280;44459;43.522;24.470;2022-09-01T08:58:21;99966.03;;;27.42;62.62
57572;BME280;44459;43.522;24.470;2022-09-01T09:00:54;99951.38;;;27.59;63.19
57572;BME280;44459;43.522;24.470;2022-09-01T09:03:38;99958.22;;;27.77;64.30
57572;BME280;44459;43.522;24.470;2022-09-01T09:06:25;99964.28;;;27.80;61.86
57572;BME280;44459;43.522;24.470;2022-09-01T09:08:59;99972.72;;;27.63;61.20
57572;BME280;44459;43.522;24.470;2022-09-01T09:16:44;99967.31;;;27.10;62.15
57572;BME280;44459;43.522;24.470;2022-09-01T09:19:34;99962.72;;;26.83;62.42
57572;BME280;44459;43.522;24.470;2022-09-01T09:22:05;99964.84;;;26.64;63.69
57572;BME280;44459;43.522;24.470;2022-09-01T09:24:51;99962.41;;;26.60;65.13
57572;BME280;44459;43.522;24.470;2022-09-01T09:29:59;99964.16;;;26.61;63.57
57572;BME280;44459;43.522;24.470;2022-09-01T09:32:51;99952.22;;;27.06;65.26
57572;BME280;44459;43.522;24.470;2022-09-01T09:37:47;99953.38;;;27.01;62.81
57572;BME280;44459;43.522;24.470;2022-09-01T09:40:18;99943.97;;;27.34;60.16
57572;BME280;44459;43.522;24.470;2022-09-01T09:45:26;99948.03;;;27.41;59.33
57572;BME280;44459;43.522;24.470;2022-09-01T09:47:53;99939.00;;;27.40;61.02
57572;BME280;44459;43.522;24.470;2022-09-01T09:50:28;99938.47;;;27.75;60.39
57572;BME280;44459;43.522;24.470;2022-09-01T09:58:16;99931.63;;;28.58;59.34
57572;BME280;44459;43.522;24.470;2022-09-01T10:01:00;99934.16;;;28.73;56.66
57572;BME280;44459;43.522;24.470;2022-09-01T10:03:40;99920.28;;;29.13;57.49
57572;BME280;44459;43.522;24.470;2022-09-01T10:06:10;99924.75;;;28.90;54.06
57572;BME280;44459;43.522;24.470;2022-09-01T10:11:26;99915.59;;;29.27;55.27
57572;BME280;44459;43.522;24.470;2022-09-01T10:13:53;99915.41;;;29.41;54.51
57572;BME280;44459;43.522;24.470;2022-09-01T10:16:25;99912.72;;;29.53;53.60
57572;BME280;44459;43.522;24.470;2022-09-01T10:18:54;99913.75;;;29.63;52.88
57572;BME280;44459;43.522;24.470;2022-09-01T10:21:33;99899.81;;;29.43;53.13
57572;BME280;44459;43.522;24.470;2022-09-01T10:24:01;99904.28;;;29.21;50.67
57572;BME280;44459;43.522;24.470;2022-09-01T10:26:33;99902.53;;;28.72;51.31
57572;BME280;44459;43.522;24.470;2022-09-01T10:29:12;99897.88;;;28.49;53.07
57572;BME280;44459;43.522;24.470;2022-09-01T10:31:40;99892.31;;;28.63;52.81
57572;BME280;44459;43.522;24.470;2022-09-01T10:34:07;99900.16;;;28.91;52.78
57572;BME280;44459;43.522;24.470;2022-09-01T10:36:41;99893.91;;;28.78;54.05
57572;BME280;44459;43.522;24.470;2022-09-01T10:39:16;99896.13;;;28.48;54.49
57572;BME280;44459;43.522;24.470;2022-09-01T10:44:25;99896.59;;;28.04;54.76
57572;BME280;44459;43.522;24.470;2022-09-01T10:46:56;99889.00;;;27.96;54.26
57572;BME280;44459;43.522;24.470;2022-09-01T10:51:51;99874.13;;;28.76;51.41
57572;BME280;44459;43.522;24.470;2022-09-01T10:57:31;99876.44;;;29.41;50.71
57572;BME280;44459;43.522;24.470;2022-09-01T11:08:45;99855.25;;;29.57;50.38
57572;BME280;44459;43.522;24.470;2022-09-01T11:11:29;99851.31;;;29.72;49.09
57572;BME280;44459;43.522;24.470;2022-09-01T11:13:57;99851.31;;;29.83;49.10
57572;BME280;44459;43.522;24.470;2022-09-01T11:16:33;99851.75;;;29.90;47.17
57572;BME280;44459;43.522;24.470;2022-09-01T11:33:00;99843.84;;;29.98;49.29
57572;BME280;44459;43.522;24.470;2022-09-01T11:35:28;99850.13;;;30.21;50.11
57572;BME280;44459;43.522;24.470;2022-09-01T11:37:55;99841.84;;;30.22;48.30
57572;BME280;44459;43.522;24.470;2022-09-01T11:40:25;99854.97;;;30.17;47.57
57572;BME280;44459;43.522;24.470;2022-09-01T11:42:52;99847.59;;;29.73;47.84
57572;BME280;44459;43.522;24.470;2022-09-01T11:45:24;99842.84;;;29.42;49.32
57572;BME280;44459;43.522;24.470;2022-09-01T11:47:55;99837.19;;;29.56;49.14
57572;BME280;44459;43.522;24.470;2022-09-01T11:50:31;99833.75;;;29.76;49.58
57572;BME280;44459;43.522;24.470;2022-09-01T11:53:02;99837.00;;;29.92;49.68
57572;BME280;44459;43.522;24.470;2022-09-01T11:55:44;99829.09;;;30.12;47.33
57572;BME280;44459;43.522;24.470;2022-09-01T11:58:28;99819.19;;;30.00;49.30
57572;BME280;44459;43.522;24.470;2022-09-01T12:01:37;99830.56;;;30.27;48.85
57572;BME280;44459;43.522;24.470;2022-09-01T12:04:22;99824.91;;;30.08;47.04
57572;BME280;44459;43.522;24.470;2022-09-01T12:07:00;99823.34;;;29.70;49.18
57572;BME280;44459;43.522;24.470;2022-09-01T12:09:43;99826.69;;;29.63;48.88
57572;BME280;44459;43.522;24.470;2022-09-01T12:12:35;99812.16;;;29.16;50.30
57572;BME280;44459;43.522;24.470;2022-09-01T12:17:34;99804.16;;;29.15;50.49
57572;BME280;44459;43.522;24.470;2022-09-01T12:20:27;99811.09;;;29.54;49.97
57572;BME280;44459;43.522;24.470;2022-09-01T12:22:53;99798.88;;;29.70;48.93
57572;BME280;44459;43.522;24.470;2022-09-01T12:25:31;99801.38;;;29.84;49.28
57572;BME280;44459;43.522;24.470;2022-09-01T12:28:04;99800.00;;;29.90;48.81
57572;BME280;44459;43.522;24.470;2022-09-01T12:30:33;99789.31;;;29.65;49.04
57572;BME280;44459;43.522;24.470;2022-09-01T12:33:06;99789.22;;;29.77;49.82
57572;BME280;44459;43.522;24.470;2022-09-01T12:35:34;99787.50;;;30.10;47.59
57572;BME280;44459;43.522;24.470;2022-09-01T12:38:28;99791.97;;;30.22;48.63
57572;BME280;44459;43.522;24.470;2022-09-01T12:40:56;99793.91;;;30.31;47.64
57572;BME280;44459;43.522;24.470;2022-09-01T12:43:34;99790.47;;;30.18;47.13
57572;BME280;44459;43.522;24.470;2022-09-01T12:46:02;99787.03;;;30.05;48.46
57572;BME280;44459;43.522;24.470;2022-09-01T12:48:39;99787.38;;;29.89;47.63
57572;BME280;44459;43.522;24.470;2022-09-01T12:51:24;99781.75;;;29.46;48.76
57572;BME280;44459;43.522;24.470;2022-09-01T12:53:55;99783.88;;;29.42;50.09
57572;BME280;44459;43.522;24.470;2022-09-01T12:56:32;99786.94;;;29.38;49.46
57572;BME280;44459;43.522;24.470;2022-09-01T12:59:08;99784.97;;;29.51;49.36
57572;BME280;44459;43.522;24.470;2022-09-01T13:01:35;99780.31;;;29.64;50.17
57572;BME280;44459;43.522;24.470;2022-09-01T13:06:53;99771.66;;;30.04;48.39
57572;BME280;44459;43.522;24.470;2022-09-01T13:09:19;99772.91;;;30.22;47.70
57572;BME280;44459;43.522;24.470;2022-09-01T13:11:45;99774.63;;;30.23;48.58
57572;BME280;44459;43.522;24.470;2022-09-01T13:14:14;99768.31;;;30.11;48.52
57572;BME280;44459;43.522;24.470;2022-09-01T13:16:40;99768.69;;;30.18;48.54
57572;BME280;44459;43.522;24.470;2022-09-01T13:19:05;99773.63;;;30.24;46.53
57572;BME280;44459;43.522;24.470;2022-09-01T13:21:32;99765.69;;;30.32;47.84
57572;BME280;44459;43.522;24.470;2022-09-01T13:24:00;99771.28;;;30.41;48.22
57572;BME280;44459;43.522;24.470;2022-09-01T13:26:25;99768.53;;;30.41;46.92
57572;BME280;44459;43.522;24.470;2022-09-01T13:28:56;99761.72;;;30.36;48.27
57572;BME280;44459;43.522;24.470;2022-09-01T13:31:21;99762.84;;;30.33;48.26
57572;BME280;44459;43.522;24.470;2022-09-01T13:33:47;99763.75;;;30.12;47.71
57572;BME280;44459;43.522;24.470;2022-09-01T13:36:13;99771.19;;;29.99;48.25
57572;BME280;44459;43.522;24.470;2022-09-01T13:38:39;99773.78;;;30.11;47.72
57572;BME280;44459;43.522;24.470;2022-09-01T13:41:05;99771.19;;;29.87;48.52
57572;BME280;44459;43.522;24.470;2022-09-01T13:43:31;99774.84;;;29.75;48.54
57572;BME280;44459;43.522;24.470;2022-09-01T13:45:58;99762.22;;;29.52;49.11
57572;BME280;44459;43.522;24.470;2022-09-01T13:48:23;99764.09;;;29.63;47.66
57572;BME280;44459;43.522;24.470;2022-09-01T13:50:51;99771.91;;;29.67;49.18
57572;BME280;44459;43.522;24.470;2022-09-01T13:53:20;99763.72;;;29.56;48.89
57572;BME280;44459;43.522;24.470;2022-09-01T13:55:46;99767.06;;;29.60;48.98
57572;BME280;44459;43.522;24.470;2022-09-01T13:58:13;99769.16;;;29.45;49.15
57572;BME280;44459;43.522;24.470;2022-09-01T14:00:42;99764.16;;;29.28;48.29